Terminal Aerodrome Forecast
Issued by NWS

Home | Current Version | Previous Version | Text Only | Print | Product List | Glossary On
Versions: 1 2 3 4 5 6 7 8 9 10 11 12 13 14 15 16 17 18 19 20 21 22 23 24 25 26 27 28 29 30 31 32 33
000
FTUS43 KDLH 230300 AAA
TAFHIB
TAF AMD
KHIB 230306Z 2303/2324 11003KT P6SM BKN015 OVC045
      TEMPO 2303/2305 -SHRA SCT015 OVC025
     FM230500 00000KT 3SM BR OVC011
     FM230800 00000KT 2SM BR OVC007
      TEMPO 2309/2312 3/4SM BR OVC004
     FM231500 09004KT P6SM OVC011
     FM232000 10006KT P6SM BKN025 OVC050=

USA.gov is the U.S. government's official web portal to all federal, state and local government web resources and services.